sensor_id;sensor_type;location;lat;lon;timestamp;P1;durP1;ratioP1;P2;durP2;ratioP2
61903;SDS011;47857;52.270;6.804;2023-11-21T00:01:58;73.70;;;28.02;;
61903;SDS011;47857;52.270;6.804;2023-11-21T00:04:24;66.30;;;28.17;;
61903;SDS011;47857;52.270;6.804;2023-11-21T00:06:53;69.70;;;28.20;;
61903;SDS011;47857;52.270;6.804;2023-11-21T00:09:19;71.68;;;29.52;;
61903;SDS011;47857;52.270;6.804;2023-11-21T00:11:45;65.38;;;29.55;;
61903;SDS011;47857;52.270;6.804;2023-11-21T00:14:11;68.80;;;29.55;;
61903;SDS011;47857;52.270;6.804;2023-11-21T00:16:36;68.60;;;27.95;;
61903;SDS011;47857;52.270;6.804;2023-11-21T00:19:02;71.20;;;29.95;;
61903;SDS011;47857;52.270;6.804;2023-11-21T00:21:27;64.68;;;28.50;;
61903;SDS011;47857;52.270;6.804;2023-11-21T00:23:53;63.83;;;27.65;;
61903;SDS011;47857;52.270;6.804;2023-11-21T00:26:19;69.97;;;29.45;;
61903;SDS011;47857;52.270;6.804;2023-11-21T00:28:51;64.15;;;27.30;;
61903;SDS011;47857;52.270;6.804;2023-11-21T00:31:17;71.30;;;28.52;;
61903;SDS011;47857;52.270;6.804;2023-11-21T00:33:42;63.75;;;27.30;;
61903;SDS011;47857;52.270;6.804;2023-11-21T00:36:08;61.38;;;27.15;;
61903;SDS011;47857;52.270;6.804;2023-11-21T00:38:37;62.70;;;27.83;;
61903;SDS011;47857;52.270;6.804;2023-11-21T00:41:05;63.97;;;27.25;;
61903;SDS011;47857;52.270;6.804;2023-11-21T00:43:31;63.05;;;27.55;;
61903;SDS011;47857;52.270;6.804;2023-11-21T00:45:59;61.80;;;27.80;;
61903;SDS011;47857;52.270;6.804;2023-11-21T00:48:29;64.00;;;27.80;;
61903;SDS011;47857;52.270;6.804;2023-11-21T00:50:54;65.07;;;28.08;;
61903;SDS011;47857;52.270;6.804;2023-11-21T00:53:21;64.28;;;28.85;;
61903;SDS011;47857;52.270;6.804;2023-11-21T00:55:46;64.32;;;26.25;;
61903;SDS011;47857;52.270;6.804;2023-11-21T00:58:12;71.32;;;29.50;;
61903;SDS011;47857;52.270;6.804;2023-11-21T01:00:38;61.17;;;29.20;;
61903;SDS011;47857;52.270;6.804;2023-11-21T01:03:06;66.82;;;28.95;;
61903;SDS011;47857;52.270;6.804;2023-11-21T01:05:34;63.47;;;28.40;;
61903;SDS011;47857;52.270;6.804;2023-11-21T01:08:00;61.70;;;28.08;;
61903;SDS011;47857;52.270;6.804;2023-11-21T01:10:25;60.08;;;25.55;;
61903;SDS011;47857;52.270;6.804;2023-11-21T01:12:51;52.97;;;25.85;;
61903;SDS011;47857;52.270;6.804;2023-11-21T01:15:16;63.65;;;26.15;;
61903;SDS011;47857;52.270;6.804;2023-11-21T01:17:42;61.17;;;27.00;;
61903;SDS011;47857;52.270;6.804;2023-11-21T01:20:08;57.90;;;26.73;;
61903;SDS011;47857;52.270;6.804;2023-11-21T01:22:38;53.13;;;26.38;;
61903;SDS011;47857;52.270;6.804;2023-11-21T01:25:04;60.28;;;26.92;;
61903;SDS011;47857;52.270;6.804;2023-11-21T01:27:35;60.97;;;26.90;;
61903;SDS011;47857;52.270;6.804;2023-11-21T01:30:01;59.05;;;26.98;;
61903;SDS011;47857;52.270;6.804;2023-11-21T01:32:27;60.90;;;27.77;;
61903;SDS011;47857;52.270;6.804;2023-11-21T01:34:53;54.70;;;26.33;;
61903;SDS011;47857;52.270;6.804;2023-11-21T01:37:20;62.30;;;27.58;;
61903;SDS011;47857;52.270;6.804;2023-11-21T01:39:47;61.92;;;27.83;;
61903;SDS011;47857;52.270;6.804;2023-11-21T01:42:13;61.28;;;28.10;;
61903;SDS011;47857;52.270;6.804;2023-11-21T01:44:39;55.00;;;27.35;;
61903;SDS011;47857;52.270;6.804;2023-11-21T01:47:08;59.38;;;27.48;;
61903;SDS011;47857;52.270;6.804;2023-11-21T01:49:34;57.50;;;26.88;;
61903;SDS011;47857;52.270;6.804;2023-11-21T01:52:01;60.75;;;28.25;;
61903;SDS011;47857;52.270;6.804;2023-11-21T01:54:27;60.45;;;29.60;;
61903;SDS011;47857;52.270;6.804;2023-11-21T01:56:57;60.80;;;28.80;;
61903;SDS011;47857;52.270;6.804;2023-11-21T01:59:28;58.25;;;27.90;;
61903;SDS011;47857;52.270;6.804;2023-11-21T02:01:57;59.92;;;28.77;;
61903;SDS011;47857;52.270;6.804;2023-11-21T02:04:24;59.63;;;28.45;;
61903;SDS011;47857;52.270;6.804;2023-11-21T02:06:50;57.63;;;28.65;;
61903;SDS011;47857;52.270;6.804;2023-11-21T02:09:16;62.83;;;29.92;;
61903;SDS011;47857;52.270;6.804;2023-11-21T02:11:42;67.53;;;29.15;;
61903;SDS011;47857;52.270;6.804;2023-11-21T02:14:09;60.50;;;28.83;;
61903;SDS011;47857;52.270;6.804;2023-11-21T02:16:35;68.75;;;29.95;;
61903;SDS011;47857;52.270;6.804;2023-11-21T02:19:01;56.60;;;27.98;;
61903;SDS011;47857;52.270;6.804;2023-11-21T02:21:28;62.80;;;28.90;;
61903;SDS011;47857;52.270;6.804;2023-11-21T02:23:55;60.35;;;28.48;;
61903;SDS011;47857;52.270;6.804;2023-11-21T02:26:21;55.22;;;27.80;;
61903;SDS011;47857;52.270;6.804;2023-11-21T02:28:46;60.65;;;30.33;;
61903;SDS011;47857;52.270;6.804;2023-11-21T02:31:13;58.78;;;29.10;;
61903;SDS011;47857;52.270;6.804;2023-11-21T02:33:38;70.65;;;31.63;;
61903;SDS011;47857;52.270;6.804;2023-11-21T02:36:04;58.42;;;30.63;;
61903;SDS011;47857;52.270;6.804;2023-11-21T02:38:30;65.30;;;30.63;;
61903;SDS011;47857;52.270;6.804;2023-11-21T02:40:57;64.95;;;30.60;;
61903;SDS011;47857;52.270;6.804;2023-11-21T02:43:23;67.32;;;32.95;;
61903;SDS011;47857;52.270;6.804;2023-11-21T02:45:49;60.20;;;30.50;;
61903;SDS011;47857;52.270;6.804;2023-11-21T02:48:14;74.13;;;33.97;;
61903;SDS011;47857;52.270;6.804;2023-11-21T02:50:40;70.40;;;32.28;;
61903;SDS011;47857;52.270;6.804;2023-11-21T02:53:06;69.47;;;31.60;;
61903;SDS011;47857;52.270;6.804;2023-11-21T02:55:32;67.43;;;32.10;;
61903;SDS011;47857;52.270;6.804;2023-11-21T02:58:00;63.17;;;32.28;;
61903;SDS011;47857;52.270;6.804;2023-11-21T03:00:26;68.35;;;33.70;;
61903;SDS011;47857;52.270;6.804;2023-11-21T03:02:53;76.57;;;34.72;;
61903;SDS011;47857;52.270;6.804;2023-11-21T03:05:19;73.05;;;33.10;;
61903;SDS011;47857;52.270;6.804;2023-11-21T03:07:45;68.70;;;32.95;;
61903;SDS011;47857;52.270;6.804;2023-11-21T03:10:11;71.05;;;32.45;;
61903;SDS011;47857;52.270;6.804;2023-11-21T03:12:39;63.25;;;29.85;;
61903;SDS011;47857;52.270;6.804;2023-11-21T03:15:05;72.20;;;29.70;;
61903;SDS011;47857;52.270;6.804;2023-11-21T03:17:32;63.25;;;30.42;;
61903;SDS011;47857;52.270;6.804;2023-11-21T03:19:59;70.93;;;29.48;;
61903;SDS011;47857;52.270;6.804;2023-11-21T03:22:25;68.65;;;28.77;;
61903;SDS011;47857;52.270;6.804;2023-11-21T03:24:51;64.97;;;30.17;;
61903;SDS011;47857;52.270;6.804;2023-11-21T03:27:18;64.75;;;29.80;;
61903;SDS011;47857;52.270;6.804;2023-11-21T03:29:43;63.50;;;28.75;;
61903;SDS011;47857;52.270;6.804;2023-11-21T03:32:10;59.70;;;28.67;;
61903;SDS011;47857;52.270;6.804;2023-11-21T03:34:41;68.38;;;29.10;;
61903;SDS011;47857;52.270;6.804;2023-11-21T03:37:18;65.97;;;28.58;;
61903;SDS011;47857;52.270;6.804;2023-11-21T03:39:46;64.65;;;28.02;;
61903;SDS011;47857;52.270;6.804;2023-11-21T03:42:12;63.00;;;28.33;;
61903;SDS011;47857;52.270;6.804;2023-11-21T03:44:37;66.93;;;29.80;;
61903;SDS011;47857;52.270;6.804;2023-11-21T03:47:03;61.33;;;28.02;;
61903;SDS011;47857;52.270;6.804;2023-11-21T03:49:28;60.17;;;28.30;;
61903;SDS011;47857;52.270;6.804;2023-11-21T03:51:54;67.40;;;29.00;;
61903;SDS011;47857;52.270;6.804;2023-11-21T03:54:20;67.50;;;28.85;;
61903;SDS011;47857;52.270;6.804;2023-11-21T03:56:46;59.28;;;28.30;;
61903;SDS011;47857;52.270;6.804;2023-11-21T03:59:11;63.83;;;27.98;;
61903;SDS011;47857;52.270;6.804;2023-11-21T04:01:37;64.40;;;28.90;;
61903;SDS011;47857;52.270;6.804;2023-11-21T04:04:03;58.42;;;27.88;;
61903;SDS011;47857;52.270;6.804;2023-11-21T04:06:29;65.85;;;29.23;;
61903;SDS011;47857;52.270;6.804;2023-11-21T04:08:54;59.92;;;26.73;;
61903;SDS011;47857;52.270;6.804;2023-11-21T04:11:20;65.50;;;29.08;;
61903;SDS011;47857;52.270;6.804;2023-11-21T04:13:46;71.63;;;28.50;;
61903;SDS011;47857;52.270;6.804;2023-11-21T04:16:12;69.10;;;27.58;;
61903;SDS011;47857;52.270;6.804;2023-11-21T04:18:38;60.83;;;28.10;;
61903;SDS011;47857;52.270;6.804;2023-11-21T04:21:07;63.20;;;27.15;;
61903;SDS011;47857;52.270;6.804;2023-11-21T04:23:33;60.78;;;27.05;;
61903;SDS011;47857;52.270;6.804;2023-11-21T04:25:59;60.50;;;28.27;;
61903;SDS011;47857;52.270;6.804;2023-11-21T04:28:27;67.40;;;28.50;;
61903;SDS011;47857;52.270;6.804;2023-11-21T04:30:52;56.15;;;27.08;;
61903;SDS011;47857;52.270;6.804;2023-11-21T04:33:18;58.63;;;27.92;;
61903;SDS011;47857;52.270;6.804;2023-11-21T04:35:44;63.20;;;27.27;;
61903;SDS011;47857;52.270;6.804;2023-11-21T04:38:09;63.35;;;27.33;;
61903;SDS011;47857;52.270;6.804;2023-11-21T04:40:35;63.70;;;26.85;;
61903;SDS011;47857;52.270;6.804;2023-11-21T04:43:00;63.10;;;28.27;;
61903;SDS011;47857;52.270;6.804;2023-11-21T04:45:26;74.18;;;28.20;;
61903;SDS011;47857;52.270;6.804;2023-11-21T04:47:52;66.38;;;27.83;;
61903;SDS011;47857;52.270;6.804;2023-11-21T04:50:17;66.93;;;28.08;;
61903;SDS011;47857;52.270;6.804;2023-11-21T04:52:44;67.22;;;28.95;;
61903;SDS011;47857;52.270;6.804;2023-11-21T04:55:09;69.15;;;28.83;;
61903;SDS011;47857;52.270;6.804;2023-11-21T04:57:38;68.80;;;30.42;;
61903;SDS011;47857;52.270;6.804;2023-11-21T05:00:07;74.13;;;29.60;;
61903;SDS011;47857;52.270;6.804;2023-11-21T05:02:33;76.00;;;30.27;;
61903;SDS011;47857;52.270;6.804;2023-11-21T05:05:00;69.72;;;29.77;;
61903;SDS011;47857;52.270;6.804;2023-11-21T05:07:26;73.88;;;29.20;;
61903;SDS011;47857;52.270;6.804;2023-11-21T05:09:54;71.32;;;27.88;;
61903;SDS011;47857;52.270;6.804;2023-11-21T05:12:21;72.20;;;28.95;;
61903;SDS011;47857;52.270;6.804;2023-11-21T05:14:48;79.72;;;31.80;;
61903;SDS011;47857;52.270;6.804;2023-11-21T05:17:14;73.03;;;30.23;;
61903;SDS011;47857;52.270;6.804;2023-11-21T05:19:40;68.43;;;29.77;;
61903;SDS011;47857;52.270;6.804;2023-11-21T05:22:06;71.55;;;30.17;;
61903;SDS011;47857;52.270;6.804;2023-11-21T05:24:31;72.85;;;29.13;;
61903;SDS011;47857;52.270;6.804;2023-11-21T05:26:57;73.72;;;29.77;;
61903;SDS011;47857;52.270;6.804;2023-11-21T05:29:23;72.93;;;29.67;;
61903;SDS011;47857;52.270;6.804;2023-11-21T05:31:48;68.32;;;28.70;;
61903;SDS011;47857;52.270;6.804;2023-11-21T05:34:14;69.20;;;28.75;;
61903;SDS011;47857;52.270;6.804;2023-11-21T05:36:42;71.55;;;30.30;;
61903;SDS011;47857;52.270;6.804;2023-11-21T05:39:08;66.75;;;28.27;;
61903;SDS011;47857;52.270;6.804;2023-11-21T05:41:36;65.40;;;28.45;;
61903;SDS011;47857;52.270;6.804;2023-11-21T05:44:01;70.93;;;29.90;;
61903;SDS011;47857;52.270;6.804;2023-11-21T05:46:27;62.58;;;27.80;;
61903;SDS011;47857;52.270;6.804;2023-11-21T05:48:53;69.03;;;29.17;;
61903;SDS011;47857;52.270;6.804;2023-11-21T05:51:18;65.10;;;28.55;;
61903;SDS011;47857;52.270;6.804;2023-11-21T05:53:44;59.92;;;28.15;;
61903;SDS011;47857;52.270;6.804;2023-11-21T05:56:09;59.80;;;26.77;;
61903;SDS011;47857;52.270;6.804;2023-11-21T05:58:35;63.15;;;28.83;;
61903;SDS011;47857;52.270;6.804;2023-11-21T06:01:01;68.13;;;29.02;;
61903;SDS011;47857;52.270;6.804;2023-11-21T06:03:26;70.75;;;29.75;;
61903;SDS011;47857;52.270;6.804;2023-11-21T06:05:52;66.78;;;29.33;;
61903;SDS011;47857;52.270;6.804;2023-11-21T06:08:17;72.68;;;29.33;;
61903;SDS011;47857;52.270;6.804;2023-11-21T06:10:44;66.35;;;29.15;;
61903;SDS011;47857;52.270;6.804;2023-11-21T06:13:09;63.35;;;28.75;;
61903;SDS011;47857;52.270;6.804;2023-11-21T06:15:35;69.13;;;29.13;;
61903;SDS011;47857;52.270;6.804;2023-11-21T06:18:01;60.83;;;27.92;;
61903;SDS011;47857;52.270;6.804;2023-11-21T06:20:27;69.30;;;28.55;;
61903;SDS011;47857;52.270;6.804;2023-11-21T06:22:53;62.22;;;28.15;;
61903;SDS011;47857;52.270;6.804;2023-11-21T06:25:19;76.43;;;33.00;;
61903;SDS011;47857;52.270;6.804;2023-11-21T06:27:45;110.75;;;51.03;;
61903;SDS011;47857;52.270;6.804;2023-11-21T06:30:12;77.57;;;35.45;;
61903;SDS011;47857;52.270;6.804;2023-11-21T06:32:39;109.22;;;50.50;;
61903;SDS011;47857;52.270;6.804;2023-11-21T06:35:05;122.75;;;55.95;;
61903;SDS011;47857;52.270;6.804;2023-11-21T06:37:31;117.18;;;56.65;;
61903;SDS011;47857;52.270;6.804;2023-11-21T06:39:57;75.53;;;34.90;;
61903;SDS011;47857;52.270;6.804;2023-11-21T06:42:26;60.38;;;27.63;;
61903;SDS011;47857;52.270;6.804;2023-11-21T06:44:52;58.00;;;27.95;;
61903;SDS011;47857;52.270;6.804;2023-11-21T06:47:19;59.20;;;26.85;;
61903;SDS011;47857;52.270;6.804;2023-11-21T06:49:47;58.40;;;27.33;;
61903;SDS011;47857;52.270;6.804;2023-11-21T06:52:15;59.30;;;27.15;;
61903;SDS011;47857;52.270;6.804;2023-11-21T06:54:41;54.38;;;26.27;;
61903;SDS011;47857;52.270;6.804;2023-11-21T06:57:07;54.90;;;26.02;;
61903;SDS011;47857;52.270;6.804;2023-11-21T06:59:32;56.97;;;26.27;;
61903;SDS011;47857;52.270;6.804;2023-11-21T07:01:58;53.22;;;25.92;;
61903;SDS011;47857;52.270;6.804;2023-11-21T07:04:24;59.53;;;25.80;;
61903;SDS011;47857;52.270;6.804;2023-11-21T07:06:51;54.03;;;26.98;;
61903;SDS011;47857;52.270;6.804;2023-11-21T07:09:17;57.80;;;26.35;;
61903;SDS011;47857;52.270;6.804;2023-11-21T07:11:45;61.33;;;26.85;;
61903;SDS011;47857;52.270;6.804;2023-11-21T07:14:10;62.40;;;26.75;;
61903;SDS011;47857;52.270;6.804;2023-11-21T07:16:37;56.83;;;26.45;;
61903;SDS011;47857;52.270;6.804;2023-11-21T07:19:05;60.35;;;26.70;;
61903;SDS011;47857;52.270;6.804;2023-11-21T07:21:36;63.95;;;26.30;;
61903;SDS011;47857;52.270;6.804;2023-11-21T07:24:02;56.17;;;26.05;;
61903;SDS011;47857;52.270;6.804;2023-11-21T07:26:29;63.65;;;27.20;;
61903;SDS011;47857;52.270;6.804;2023-11-21T07:28:55;63.25;;;27.20;;
61903;SDS011;47857;52.270;6.804;2023-11-21T07:31:21;63.95;;;28.35;;
61903;SDS011;47857;52.270;6.804;2023-11-21T07:33:47;62.38;;;26.45;;
61903;SDS011;47857;52.270;6.804;2023-11-21T07:36:13;66.47;;;27.15;;
61903;SDS011;47857;52.270;6.804;2023-11-21T07:38:39;66.70;;;27.38;;
61903;SDS011;47857;52.270;6.804;2023-11-21T07:41:05;68.63;;;26.92;;
61903;SDS011;47857;52.270;6.804;2023-11-21T07:43:33;57.80;;;26.85;;
61903;SDS011;47857;52.270;6.804;2023-11-21T07:46:00;61.17;;;26.02;;
61903;SDS011;47857;52.270;6.804;2023-11-21T07:48:28;60.72;;;26.42;;
61903;SDS011;47857;52.270;6.804;2023-11-21T07:50:57;62.53;;;25.88;;
61903;SDS011;47857;52.270;6.804;2023-11-21T07:53:24;57.00;;;24.23;;
61903;SDS011;47857;52.270;6.804;2023-11-21T07:55:50;59.90;;;25.23;;
61903;SDS011;47857;52.270;6.804;2023-11-21T07:58:17;62.55;;;25.83;;
61903;SDS011;47857;52.270;6.804;2023-11-21T08:00:43;60.80;;;26.50;;
61903;SDS011;47857;52.270;6.804;2023-11-21T08:03:09;52.38;;;24.33;;
61903;SDS011;47857;52.270;6.804;2023-11-21T08:05:34;56.55;;;25.52;;
61903;SDS011;47857;52.270;6.804;2023-11-21T08:08:00;56.65;;;25.38;;
61903;SDS011;47857;52.270;6.804;2023-11-21T08:10:26;58.70;;;26.48;;
61903;SDS011;47857;52.270;6.804;2023-11-21T08:12:51;55.10;;;24.58;;
61903;SDS011;47857;52.270;6.804;2023-11-21T08:15:18;54.28;;;25.58;;
61903;SDS011;47857;52.270;6.804;2023-11-21T08:17:45;58.97;;;25.98;;
61903;SDS011;47857;52.270;6.804;2023-11-21T08:20:11;60.90;;;25.33;;
61903;SDS011;47857;52.270;6.804;2023-11-21T08:22:37;63.40;;;26.38;;
61903;SDS011;47857;52.270;6.804;2023-11-21T08:25:06;63.05;;;25.50;;
61903;SDS011;47857;52.270;6.804;2023-11-21T08:27:33;57.22;;;25.42;;
61903;SDS011;47857;52.270;6.804;2023-11-21T08:30:00;60.63;;;26.17;;
61903;SDS011;47857;52.270;6.804;2023-11-21T08:32:28;56.78;;;25.98;;
61903;SDS011;47857;52.270;6.804;2023-11-21T08:34:57;49.60;;;20.25;;
61903;SDS011;47857;52.270;6.804;2023-11-21T08:37:23;64.00;;;27.13;;
61903;SDS011;47857;52.270;6.804;2023-11-21T08:39:49;73.13;;;28.85;;
61903;SDS011;47857;52.270;6.804;2023-11-21T08:42:15;72.05;;;29.08;;
61903;SDS011;47857;52.270;6.804;2023-11-21T08:44:40;67.88;;;28.92;;
61903;SDS011;47857;52.270;6.804;2023-11-21T08:47:06;71.18;;;28.00;;
61903;SDS011;47857;52.270;6.804;2023-11-21T08:49:32;72.22;;;27.98;;
61903;SDS011;47857;52.270;6.804;2023-11-21T08:51:58;71.25;;;27.92;;
61903;SDS011;47857;52.270;6.804;2023-11-21T08:54:25;63.70;;;27.17;;
61903;SDS011;47857;52.270;6.804;2023-11-21T08:56:54;66.85;;;27.17;;
61903;SDS011;47857;52.270;6.804;2023-11-21T08:59:20;60.03;;;26.08;;
61903;SDS011;47857;52.270;6.804;2023-11-21T09:01:46;60.13;;;24.85;;
61903;SDS011;47857;52.270;6.804;2023-11-21T09:04:12;62.90;;;25.55;;
61903;SDS011;47857;52.270;6.804;2023-11-21T09:06:38;58.92;;;24.95;;
61903;SDS011;47857;52.270;6.804;2023-11-21T09:09:05;53.85;;;24.38;;
61903;SDS011;47857;52.270;6.804;2023-11-21T09:11:31;45.50;;;20.60;;
61903;SDS011;47857;52.270;6.804;2023-11-21T09:13:59;34.15;;;17.92;;
61903;SDS011;47857;52.270;6.804;2023-11-21T09:16:25;39.05;;;19.00;;
61903;SDS011;47857;52.270;6.804;2023-11-21T09:18:51;61.22;;;29.92;;
61903;SDS011;47857;52.270;6.804;2023-11-21T09:21:16;37.83;;;19.92;;
61903;SDS011;47857;52.270;6.804;2023-11-21T09:23:45;37.10;;;19.83;;
61903;SDS011;47857;52.270;6.804;2023-11-21T09:26:11;36.15;;;19.23;;
61903;SDS011;47857;52.270;6.804;2023-11-21T09:28:36;36.60;;;19.15;;
61903;SDS011;47857;52.270;6.804;2023-11-21T09:31:07;31.83;;;17.17;;
61903;SDS011;47857;52.270;6.804;2023-11-21T09:33:34;31.20;;;17.20;;
61903;SDS011;47857;52.270;6.804;2023-11-21T09:36:00;31.70;;;17.52;;
61903;SDS011;47857;52.270;6.804;2023-11-21T09:38:26;33.50;;;17.63;;
61903;SDS011;47857;52.270;6.804;2023-11-21T09:40:54;32.00;;;16.90;;
61903;SDS011;47857;52.270;6.804;2023-11-21T09:43:20;28.95;;;16.35;;
61903;SDS011;47857;52.270;6.804;2023-11-21T09:45:47;32.22;;;16.35;;
61903;SDS011;47857;52.270;6.804;2023-11-21T09:48:18;32.97;;;17.00;;
61903;SDS011;47857;52.270;6.804;2023-11-21T09:50:45;30.48;;;16.55;;
61903;SDS011;47857;52.270;6.804;2023-11-21T09:53:21;28.85;;;15.98;;
61903;SDS011;47857;52.270;6.804;2023-11-21T09:55:52;31.92;;;16.55;;
61903;SDS011;47857;52.270;6.804;2023-11-21T09:58:18;30.33;;;16.10;;
61903;SDS011;47857;52.270;6.804;2023-11-21T10:00:45;30.90;;;16.45;;
61903;SDS011;47857;52.270;6.804;2023-11-21T10:03:12;29.23;;;15.32;;
61903;SDS011;47857;52.270;6.804;2023-11-21T10:05:39;31.67;;;16.00;;
61903;SDS011;47857;52.270;6.804;2023-11-21T10:08:07;32.03;;;15.85;;
61903;SDS011;47857;52.270;6.804;2023-11-21T10:10:35;35.30;;;16.90;;
61903;SDS011;47857;52.270;6.804;2023-11-21T10:13:02;36.35;;;17.08;;
61903;SDS011;47857;52.270;6.804;2023-11-21T10:15:33;33.22;;;16.20;;
61903;SDS011;47857;52.270;6.804;2023-11-21T10:18:03;31.20;;;16.13;;
61903;SDS011;47857;52.270;6.804;2023-11-21T10:20:31;32.90;;;16.88;;
61903;SDS011;47857;52.270;6.804;2023-11-21T10:22:57;36.03;;;16.55;;
61903;SDS011;47857;52.270;6.804;2023-11-21T10:25:22;33.15;;;16.95;;
61903;SDS011;47857;52.270;6.804;2023-11-21T10:27:48;35.10;;;17.25;;
61903;SDS011;47857;52.270;6.804;2023-11-21T10:30:17;36.80;;;18.13;;
61903;SDS011;47857;52.270;6.804;2023-11-21T10:32:43;33.72;;;16.58;;
61903;SDS011;47857;52.270;6.804;2023-11-21T10:35:09;36.72;;;18.15;;
61903;SDS011;47857;52.270;6.804;2023-11-21T10:37:38;30.50;;;15.95;;
61903;SDS011;47857;52.270;6.804;2023-11-21T10:40:10;31.75;;;16.60;;
61903;SDS011;47857;52.270;6.804;2023-11-21T10:42:40;36.15;;;17.25;;
61903;SDS011;47857;52.270;6.804;2023-11-21T10:45:07;34.50;;;17.63;;
61903;SDS011;47857;52.270;6.804;2023-11-21T10:47:40;35.30;;;17.50;;
61903;SDS011;47857;52.270;6.804;2023-11-21T10:50:07;36.65;;;18.08;;
61903;SDS011;47857;52.270;6.804;2023-11-21T10:52:39;35.42;;;16.52;;
61903;SDS011;47857;52.270;6.804;2023-11-21T10:55:18;33.50;;;17.20;;
61903;SDS011;47857;52.270;6.804;2023-11-21T10:57:52;34.85;;;16.38;;
61903;SDS011;47857;52.270;6.804;2023-11-21T11:00:18;30.65;;;16.50;;
61903;SDS011;47857;52.270;6.804;2023-11-21T11:02:48;33.40;;;17.27;;
61903;SDS011;47857;52.270;6.804;2023-11-21T11:05:17;33.33;;;17.02;;
61903;SDS011;47857;52.270;6.804;2023-11-21T11:07:44;32.92;;;17.35;;
61903;SDS011;47857;52.270;6.804;2023-11-21T11:10:20;31.95;;;16.45;;
61903;SDS011;47857;52.270;6.804;2023-11-21T11:12:47;35.50;;;17.02;;
61903;SDS011;47857;52.270;6.804;2023-11-21T11:15:13;33.05;;;16.83;;
61903;SDS011;47857;52.270;6.804;2023-11-21T11:17:41;33.13;;;17.02;;
61903;SDS011;47857;52.270;6.804;2023-11-21T11:20:08;32.00;;;16.30;;
61903;SDS011;47857;52.270;6.804;2023-11-21T11:22:37;32.92;;;17.05;;
61903;SDS011;47857;52.270;6.804;2023-11-21T11:33:10;38.47;;;18.80;;
61903;SDS011;47857;52.270;6.804;2023-11-21T11:35:46;36.40;;;18.60;;
61903;SDS011;47857;52.270;6.804;2023-11-21T11:38:21;41.30;;;19.33;;
61903;SDS011;47857;52.270;6.804;2023-11-21T11:40:47;39.33;;;20.48;;
61903;SDS011;47857;52.270;6.804;2023-11-21T11:43:27;38.10;;;20.13;;
61903;SDS011;47857;52.270;6.804;2023-11-21T11:45:55;45.03;;;20.90;;
61903;SDS011;47857;52.270;6.804;2023-11-21T11:48:22;41.65;;;19.00;;
61903;SDS011;47857;52.270;6.804;2023-11-21T11:53:43;32.97;;;16.33;;
61903;SDS011;47857;52.270;6.804;2023-11-21T11:56:23;35.72;;;16.52;;
61903;SDS011;47857;52.270;6.804;2023-11-21T11:58:53;36.33;;;16.48;;
61903;SDS011;47857;52.270;6.804;2023-11-21T12:01:19;33.13;;;16.05;;
61903;SDS011;47857;52.270;6.804;2023-11-21T12:06:41;32.83;;;15.40;;
61903;SDS011;47857;52.270;6.804;2023-11-21T12:09:12;34.65;;;16.77;;
61903;SDS011;47857;52.270;6.804;2023-11-21T12:11:43;32.72;;;16.27;;
61903;SDS011;47857;52.270;6.804;2023-11-21T12:14:09;35.55;;;17.00;;
61903;SDS011;47857;52.270;6.804;2023-11-21T12:16:35;36.55;;;18.45;;
61903;SDS011;47857;52.270;6.804;2023-11-21T12:19:00;38.90;;;18.95;;
61903;SDS011;47857;52.270;6.804;2023-11-21T12:21:26;41.15;;;20.05;;
61903;SDS011;47857;52.270;6.804;2023-11-21T12:23:52;38.20;;;19.98;;
61903;SDS011;47857;52.270;6.804;2023-11-21T12:26:18;38.47;;;19.00;;
61903;SDS011;47857;52.270;6.804;2023-11-21T12:28:43;36.88;;;19.48;;
61903;SDS011;47857;52.270;6.804;2023-11-21T12:31:19;37.10;;;19.15;;
61903;SDS011;47857;52.270;6.804;2023-11-21T12:33:45;34.72;;;18.17;;
61903;SDS011;47857;52.270;6.804;2023-11-21T12:36:11;32.10;;;17.05;;
61903;SDS011;47857;52.270;6.804;2023-11-21T12:38:36;35.28;;;17.50;;
61903;SDS011;47857;52.270;6.804;2023-11-21T12:41:02;40.17;;;18.90;;
61903;SDS011;47857;52.270;6.804;2023-11-21T12:43:28;32.60;;;17.95;;
61903;SDS011;47857;52.270;6.804;2023-11-21T12:46:07;35.15;;;18.52;;
61903;SDS011;47857;52.270;6.804;2023-11-21T12:48:36;34.38;;;18.80;;
61903;SDS011;47857;52.270;6.804;2023-11-21T12:51:04;30.77;;;17.83;;
61903;SDS011;47857;52.270;6.804;2023-11-21T12:53:31;32.28;;;17.90;;
61903;SDS011;47857;52.270;6.804;2023-11-21T12:56:02;28.67;;;17.27;;
61903;SDS011;47857;52.270;6.804;2023-11-21T12:58:31;33.92;;;18.70;;
61903;SDS011;47857;52.270;6.804;2023-11-21T13:00:58;33.38;;;17.95;;
61903;SDS011;47857;52.270;6.804;2023-11-21T13:03:24;26.20;;;17.50;;
61903;SDS011;47857;52.270;6.804;2023-11-21T13:05:51;25.25;;;16.38;;
61903;SDS011;47857;52.270;6.804;2023-11-21T13:08:23;28.35;;;17.95;;
61903;SDS011;47857;52.270;6.804;2023-11-21T13:10:50;25.52;;;17.23;;
61903;SDS011;47857;52.270;6.804;2023-11-21T13:13:17;28.65;;;17.20;;
61903;SDS011;47857;52.270;6.804;2023-11-21T13:15:52;24.75;;;16.23;;
61903;SDS011;47857;52.270;6.804;2023-11-21T13:18:21;23.45;;;16.15;;
61903;SDS011;47857;52.270;6.804;2023-11-21T13:20:48;25.52;;;16.65;;
61903;SDS011;47857;52.270;6.804;2023-11-21T13:23:14;24.05;;;15.77;;
61903;SDS011;47857;52.270;6.804;2023-11-21T13:25:41;21.95;;;15.80;;
61903;SDS011;47857;52.270;6.804;2023-11-21T13:28:08;21.98;;;14.95;;
61903;SDS011;47857;52.270;6.804;2023-11-21T13:30:35;21.17;;;14.27;;
61903;SDS011;47857;52.270;6.804;2023-11-21T13:33:03;20.00;;;13.93;;
61903;SDS011;47857;52.270;6.804;2023-11-21T13:35:36;18.73;;;13.48;;
61903;SDS011;47857;52.270;6.804;2023-11-21T13:38:06;14.18;;;10.68;;
61903;SDS011;47857;52.270;6.804;2023-11-21T13:40:32;15.65;;;10.52;;
61903;SDS011;47857;52.270;6.804;2023-11-21T13:43:05;13.40;;;10.73;;
61903;SDS011;47857;52.270;6.804;2023-11-21T13:45:30;14.38;;;10.35;;
61903;SDS011;47857;52.270;6.804;2023-11-21T13:47:56;15.38;;;10.98;;
61903;SDS011;47857;52.270;6.804;2023-11-21T13:50:23;13.45;;;9.57;;
61903;SDS011;47857;52.270;6.804;2023-11-21T13:52:58;12.68;;;9.18;;
61903;SDS011;47857;52.270;6.804;2023-11-21T13:55:29;13.35;;;9.63;;
61903;SDS011;47857;52.270;6.804;2023-11-21T13:57:54;12.88;;;10.20;;
61903;SDS011;47857;52.270;6.804;2023-11-21T14:00:20;13.30;;;9.57;;
61903;SDS011;47857;52.270;6.804;2023-11-21T14:05:34;11.63;;;8.75;;
61903;SDS011;47857;52.270;6.804;2023-11-21T14:07:59;12.00;;;8.55;;
61903;SDS011;47857;52.270;6.804;2023-11-21T14:10:32;13.25;;;8.70;;
61903;SDS011;47857;52.270;6.804;2023-11-21T14:13:10;10.75;;;7.40;;
61903;SDS011;47857;52.270;6.804;2023-11-21T14:15:36;13.52;;;8.43;;
61903;SDS011;47857;52.270;6.804;2023-11-21T14:18:08;10.75;;;7.53;;
61903;SDS011;47857;52.270;6.804;2023-11-21T14:20:39;10.43;;;7.50;;
61903;SDS011;47857;52.270;6.804;2023-11-21T14:23:06;12.13;;;7.13;;
61903;SDS011;47857;52.270;6.804;2023-11-21T14:25:34;10.10;;;7.28;;
61903;SDS011;47857;52.270;6.804;2023-11-21T14:28:03;10.27;;;7.20;;
61903;SDS011;47857;52.270;6.804;2023-11-21T14:30:31;11.07;;;7.30;;
61903;SDS011;47857;52.270;6.804;2023-11-21T14:32:59;11.75;;;7.55;;
61903;SDS011;47857;52.270;6.804;2023-11-21T14:35:26;10.60;;;7.00;;
61903;SDS011;47857;52.270;6.804;2023-11-21T14:37:52;11.55;;;8.13;;